Time;durP1;ratioP1;P1;durP2;ratioP2;P2;SDS_P1;SDS_P2;PMS_P1;PMS_P2;Temp;Humidity;BMP_temperature;BMP_pressure;BME280_temperature;BME280_humidity;BME280_pressure;Samples;Min_cycle;Max_cycle;Signal;HPM_P1;HPM_P2
2022/11/08 00:02:46;;;;;;;;;3.00;3.00;;;;;12.90;75.94;99446.31;5136921;27;8911;-59
2022/11/08 00:16:16;;;;;;;;;3.75;3.00;;;;;12.91;75.68;99446.16;5136928;27;8829;-59
2022/11/08 00:18:43;;;;;;;;;3.00;3.00;;;;;12.94;75.91;99450.34;5136763;27;8917;-59
2022/11/08 00:21:11;;;;;;;;;3.50;2.00;;;;;12.95;76.15;99446.72;5136293;27;8810;-58
2022/11/08 00:23:39;;;;;;;;;3.00;3.00;;;;;12.94;75.78;99456.59;5136354;27;8834;-59
2022/11/08 00:26:06;;;;;;;;;1.50;1.50;;;;;12.94;75.91;99445.91;5115720;28;8816;-59
2022/11/08 00:28:36;;;;;;;;;3.25;2.25;;;;;12.94;76.17;99450.34;5132365;27;8890;-58
2022/11/08 00:31:04;;;;;;;;;2.00;1.00;;;;;12.94;76.05;99445.91;5140540;27;8802;-58
2022/11/08 00:33:32;;;;;;;;;0.00;0.00;;;;;12.93;76.11;99448.69;5140592;27;8891;-59
2022/11/08 00:35:59;;;;;;;;;1.00;1.00;;;;;12.90;75.78;99441.78;5140274;27;8871;-59
2022/11/08 00:38:27;;;;;;;;;2.50;1.00;;;;;12.89;75.88;99442.78;5139603;27;8822;-59
2022/11/08 00:40:56;;;;;;;;;2.33;2.33;;;;;12.89;75.93;99445.47;5139501;27;8918;-58
2022/11/08 00:43:23;;;;;;;;;3.00;2.50;;;;;12.88;75.95;99426.91;5139269;27;8810;-58
2022/11/08 00:45:51;;;;;;;;;1.00;1.00;;;;;12.89;76.16;99441.94;5139424;27;8830;-59
2022/11/08 00:48:19;;;;;;;;;0.50;0.00;;;;;12.89;75.67;99445.47;5138883;27;8798;-58
2022/11/08 00:50:47;;;;;;;;;2.50;2.50;;;;;12.89;76.25;99436.59;5139249;27;8848;-58
2022/11/08 00:53:15;;;;;;;;;0.00;0.00;;;;;12.89;76.12;99444.59;5139435;27;8814;-59
2022/11/08 00:55:43;;;;;;;;;3.25;2.50;;;;;12.85;75.76;99436.03;5139382;27;8837;-58
2022/11/08 00:58:11;;;;;;;;;3.00;3.00;;;;;12.83;75.88;99431.88;5138686;27;8905;-58
2022/11/08 01:00:38;;;;;;;;;1.00;1.00;;;;;12.83;75.65;99427.34;5139052;27;8845;-58
2022/11/08 01:03:23;;;;;;;;;0.67;0.67;;;;;12.81;76.28;99423.13;5139153;27;8837;-58
2022/11/08 01:05:50;;;;;;;;;1.50;1.50;;;;;12.79;76.14;99431.31;5139991;27;9497;-59
2022/11/08 01:08:18;;;;;;;;;1.50;1.50;;;;;12.80;75.86;99432.13;5139080;27;8844;-59
2022/11/08 01:10:47;;;;;;;;;2.00;1.00;;;;;12.82;75.72;99446.19;5139529;27;8944;-59
2022/11/08 01:13:14;;;;;;;;;1.00;1.00;;;;;12.81;75.99;99444.50;5139983;27;8839;-59
2022/11/08 01:15:42;;;;;;;;;3.25;3.25;;;;;12.81;75.82;99428.47;5139970;27;8845;-60
2022/11/08 01:18:10;;;;;;;;;3.00;3.00;;;;;12.82;75.69;99427.47;5139713;27;8817;-59
2022/11/08 01:20:38;;;;;;;;;1.00;1.00;;;;;12.82;76.42;99430.16;5140144;27;8826;-58
2022/11/08 01:23:05;;;;;;;;;1.50;1.00;;;;;12.84;75.95;99428.19;5140221;27;8809;-59
2022/11/08 01:25:33;;;;;;;;;0.75;0.50;;;;;12.86;75.54;99428.88;5139343;27;8834;-59
2022/11/08 01:28:01;;;;;;;;;1.00;1.00;;;;;12.89;75.33;99428.56;5139618;27;8806;-58
2022/11/08 01:30:29;;;;;;;;;2.50;2.50;;;;;12.93;75.78;99424.63;5139867;27;8813;-58
2022/11/08 01:32:57;;;;;;;;;2.00;2.00;;;;;12.97;75.50;99423.34;5139911;27;8830;-58
2022/11/08 01:35:24;;;;;;;;;1.00;0.25;;;;;13.00;75.16;99423.06;5139515;27;8817;-59
2022/11/08 01:37:52;;;;;;;;;1.00;1.00;;;;;13.01;75.79;99425.59;5139511;27;8817;-59
2022/11/08 01:40:20;;;;;;;;;1.00;1.00;;;;;13.02;75.35;99427.28;5139613;27;8906;-59
2022/11/08 01:42:48;;;;;;;;;3.00;3.00;;;;;13.02;74.75;99429.09;5139424;27;8886;-59
2022/11/08 01:45:16;;;;;;;;;1.50;1.00;;;;;13.01;75.01;99422.94;5139592;27;8814;-59
2022/11/08 01:47:43;;;;;;;;;3.00;3.00;;;;;13.02;75.30;99421.09;5139422;27;8891;-59
2022/11/08 01:50:11;;;;;;;;;3.00;2.00;;;;;13.04;74.88;99419.09;5139564;27;8814;-58
2022/11/08 01:52:39;;;;;;;;;2.50;1.00;;;;;13.08;75.26;99423.16;5138214;27;8806;-59
2022/11/08 01:55:06;;;;;;;;;1.50;1.00;;;;;13.12;74.93;99405.81;5139659;27;8863;-59
2022/11/08 01:57:34;;;;;;;;;1.00;1.00;;;;;13.15;74.90;99408.19;5139332;27;8896;-59
2022/11/08 02:00:02;;;;;;;;;3.00;1.00;;;;;13.16;75.02;99413.41;5139154;27;8829;-59
2022/11/08 02:02:30;;;;;;;;;3.25;3.00;;;;;13.19;74.47;99415.75;5138991;27;8809;-59
2022/11/08 02:04:58;;;;;;;;;3.00;3.00;;;;;13.20;74.82;99406.75;5139133;27;8940;-58
2022/11/08 02:07:25;;;;;;;;;1.00;1.00;;;;;13.23;74.47;99410.97;5138634;27;8845;-59
2022/11/08 02:09:53;;;;;;;;;0.00;0.00;;;;;13.23;74.66;99406.44;5139102;27;8926;-59
2022/11/08 02:12:21;;;;;;;;;1.00;0.75;;;;;13.27;74.65;99409.63;5138961;27;8890;-59
2022/11/08 02:14:48;;;;;;;;;2.50;1.00;;;;;13.29;74.86;99419.19;5139092;27;9477;-59
2022/11/08 02:17:16;;;;;;;;;2.00;1.00;;;;;13.30;74.36;99404.84;5138721;27;8806;-58
2022/11/08 02:19:44;;;;;;;;;1.00;1.00;;;;;13.32;74.51;99402.88;5138909;27;8922;-59
2022/11/08 02:22:11;;;;;;;;;3.00;3.00;;;;;13.34;74.81;99413.38;5138984;27;8894;-59
2022/11/08 02:24:39;;;;;;;;;0.75;0.00;;;;;13.37;74.38;99407.75;5138835;27;8846;-58
2022/11/08 02:27:07;;;;;;;;;1.00;1.00;;;;;13.40;74.22;99399.41;5138431;27;8810;-58
2022/11/08 02:29:37;;;;;;;;;3.00;3.00;;;;;13.41;73.87;99395.75;5138484;27;8895;-58
2022/11/08 02:32:04;;;;;;;;;2.00;1.00;;;;;13.43;73.76;99399.94;5138518;27;8914;-59
2022/11/08 02:34:32;;;;;;;;;0.00;0.00;;;;;13.44;74.25;99404.31;5138727;27;8818;-58
2022/11/08 02:37:00;;;;;;;;;3.00;1.00;;;;;13.45;74.18;99399.81;5138407;27;8821;-58
2022/11/08 02:39:27;;;;;;;;;1.00;1.00;;;;;13.44;73.61;99393.59;5138093;27;8867;-59
2022/11/08 02:41:56;;;;;;;;;1.50;1.00;;;;;13.47;74.42;99389.78;5138250;27;8879;-58
2022/11/08 02:44:24;;;;;;;;;3.25;2.00;;;;;13.48;73.93;99381.63;5138344;27;8929;-58
2022/11/08 02:46:52;;;;;;;;;0.00;0.00;;;;;13.49;73.65;99371.75;5137915;27;8814;-58
2022/11/08 02:49:20;;;;;;;;;1.00;1.00;;;;;13.50;73.25;99368.91;5138153;27;8901;-59
2022/11/08 02:51:47;;;;;;;;;1.00;1.00;;;;;13.50;73.59;99373.41;5137674;27;8810;-58
2022/11/08 02:54:17;;;;;;;;;3.00;3.00;;;;;13.50;73.71;99376.09;5138172;27;8833;-58
2022/11/08 02:56:45;;;;;;;;;1.00;1.00;;;;;13.52;73.74;99382.16;5137594;27;8879;-58
2022/11/08 02:59:12;;;;;;;;;2.00;2.00;;;;;13.52;73.43;99366.91;5138181;27;8916;-58
2022/11/08 03:01:40;;;;;;;;;3.25;3.25;;;;;13.52;73.49;99360.75;5137655;27;8817;-57
2022/11/08 03:04:08;;;;;;;;;0.50;0.50;;;;;13.52;73.33;99366.91;5137887;27;8813;-58
2022/11/08 03:06:37;;;;;;;;;2.00;2.00;;;;;13.52;72.91;99360.75;5137175;27;8813;-58
2022/11/08 03:09:04;;;;;;;;;0.00;0.00;;;;;13.51;73.39;99361.75;5117282;28;8847;-58
2022/11/08 03:11:32;;;;;;;;;3.00;3.00;;;;;13.49;73.50;99363.72;5117188;28;8889;-57
2022/11/08 03:14:00;;;;;;;;;0.00;0.00;;;;;13.48;73.17;99351.34;5117055;28;8808;-58
2022/11/08 03:16:27;;;;;;;;;1.50;1.50;;;;;13.46;73.13;99350.66;5131414;27;8810;-56
2022/11/08 03:18:55;;;;;;;;;1.50;1.50;;;;;13.42;73.63;99346.59;5137456;27;8848;-58
2022/11/08 03:21:22;;;;;;;;;3.00;3.00;;;;;13.38;73.67;99350.59;5137766;27;9476;-58
2022/11/08 03:23:50;;;;;;;;;1.50;1.50;;;;;13.33;73.86;99336.84;5137458;27;8818;-59
2022/11/08 03:26:18;;;;;;;;;2.00;2.00;;;;;13.27;73.80;99338.31;5137194;27;8793;-56
2022/11/08 03:28:46;;;;;;;;;1.00;1.00;;;;;13.21;74.32;99336.22;5137269;27;8814;-57
2022/11/08 03:31:15;;;;;;;;;1.00;1.00;;;;;13.17;73.80;99328.69;5137157;27;8935;-56
2022/11/08 03:33:43;;;;;;;;;3.00;3.00;;;;;13.09;73.73;99331.28;5137105;27;8826;-59
2022/11/08 03:36:11;;;;;;;;;1.00;1.00;;;;;13.05;73.70;99327.25;5136933;27;8806;-58
2022/11/08 03:38:38;;;;;;;;;0.25;0.00;;;;;13.01;74.15;99317.84;5137202;27;9596;-58
2022/11/08 03:41:06;;;;;;;;;1.00;1.00;;;;;12.99;74.34;99314.47;5137065;27;8813;-58
2022/11/08 03:43:35;;;;;;;;;0.50;0.50;;;;;12.96;74.24;99320.13;5137091;27;8794;-58
2022/11/08 03:46:02;;;;;;;;;3.00;3.00;;;;;12.92;74.58;99316.88;5137202;27;8929;-59
2022/11/08 03:48:30;;;;;;;;;1.00;1.00;;;;;12.87;74.42;99313.84;5137337;27;8822;-59
2022/11/08 03:50:58;;;;;;;;;4.50;3.00;;;;;12.83;74.03;99311.63;5136603;27;8814;-59
2022/11/08 03:53:26;;;;;;;;;1.00;1.00;;;;;12.79;73.99;99305.75;5137247;27;8907;-59
2022/11/08 03:55:56;;;;;;;;;0.75;0.75;;;;;12.74;74.83;99299.16;5137279;27;8814;-59
2022/11/08 03:58:23;;;;;;;;;0.50;0.50;;;;;12.72;74.70;99301.13;5136909;27;9453;-59
2022/11/08 04:00:51;;;;;;;;;1.00;1.00;;;;;12.66;74.69;99297.25;5137284;27;8822;-59
2022/11/08 04:03:19;;;;;;;;;2.50;1.00;;;;;12.63;74.68;99294.88;5136075;27;8821;-59
2022/11/08 04:05:46;;;;;;;;;2.00;1.00;;;;;12.62;75.03;99289.69;5136862;27;8822;-59
2022/11/08 04:08:15;;;;;;;;;1.00;1.00;;;;;12.57;75.20;99291.97;5136524;27;8817;-59
2022/11/08 04:10:44;;;;;;;;;1.00;0.00;;;;;12.56;74.93;99284.94;5137013;27;8955;-58
2022/11/08 04:15:57;;;;;;;;;0.75;0.75;;;;;12.45;74.74;99274.47;5136186;27;8798;-59
2022/11/08 04:21:20;;;;;;;;;1.00;0.75;;;;;12.40;75.29;99274.09;5136469;27;8838;-59
2022/11/08 04:23:48;;;;;;;;;1.00;1.00;;;;;12.34;74.80;99274.66;5136902;27;8818;-58
2022/11/08 04:26:16;;;;;;;;;0.00;0.00;;;;;12.30;75.58;99273.31;5136262;27;8805;-59
2022/11/08 04:28:43;;;;;;;;;0.75;0.75;;;;;12.26;75.46;99274.56;5136166;27;8838;-59
2022/11/08 04:31:11;;;;;;;;;1.00;1.00;;;;;12.21;75.28;99277.69;5136038;27;8813;-58
2022/11/08 04:33:42;;;;;;;;;0.00;0.00;;;;;12.16;75.49;99282.63;5136153;27;8834;-59
2022/11/08 04:36:09;;;;;;;;;0.75;0.75;;;;;12.12;75.69;99275.94;5136046;27;8806;-59
2022/11/08 04:38:37;;;;;;;;;1.00;1.00;;;;;12.06;75.88;99273.84;5135984;27;8916;-58
2022/11/08 04:41:04;;;;;;;;;3.50;2.00;;;;;12.00;76.09;99277.09;5135776;27;8830;-59
2022/11/08 04:43:32;;;;;;;;;0.50;0.50;;;;;11.95;75.76;99274.00;5135707;27;8834;-59
2022/11/08 04:45:59;;;;;;;;;0.50;0.50;;;;;11.91;75.96;99269.13;5135689;27;8862;-58
2022/11/08 04:48:27;;;;;;;;;1.25;0.25;;;;;11.90;75.58;99262.09;5135834;27;8821;-59
2022/11/08 04:50:55;;;;;;;;;0.50;0.50;;;;;11.85;76.22;99261.72;5135656;27;8805;-58
2022/11/08 04:53:22;;;;;;;;;1.00;1.00;;;;;11.77;76.26;99253.63;5135870;27;8814;-59
2022/11/08 04:55:50;;;;;;;;;1.00;1.00;;;;;11.69;75.90;99250.81;5135730;27;8826;-58
2022/11/08 04:58:18;;;;;;;;;1.50;1.50;;;;;11.63;76.70;99255.91;5135522;27;8810;-58
2022/11/08 05:00:46;;;;;;;;;2.50;1.00;;;;;11.58;76.20;99258.16;5135540;27;8822;-58
2022/11/08 05:03:14;;;;;;;;;0.00;0.00;;;;;11.50;76.99;99247.34;5135313;27;8818;-59
2022/11/08 05:05:41;;;;;;;;;1.00;0.00;;;;;11.39;76.43;99247.53;5135375;27;8903;-59
2022/11/08 05:08:09;;;;;;;;;0.25;0.25;;;;;11.30;76.75;99245.72;5135331;27;8834;-58
2022/11/08 05:10:36;;;;;;;;;0.00;0.00;;;;;11.19;76.57;99246.72;5135512;27;8814;-59
2022/11/08 05:13:04;;;;;;;;;1.00;1.00;;;;;11.13;76.91;99241.97;5135638;27;8922;-59
2022/11/08 05:15:32;;;;;;;;;0.00;0.00;;;;;11.06;76.93;99246.19;5139425;27;9481;-59
2022/11/08 05:18:00;;;;;;;;;0.00;0.00;;;;;11.02;77.17;99238.63;5139506;27;8911;-59
2022/11/08 05:23:27;;;;;;;;;3.00;1.50;;;;;10.89;77.48;99249.56;5139308;27;8909;-59
2022/11/08 05:25:54;;;;;;;;;0.75;0.75;;;;;10.83;77.71;99247.47;5138815;27;8810;-58
2022/11/08 05:28:22;;;;;;;;;0.75;0.75;;;;;10.75;77.95;99255.31;5139106;27;8814;-59
2022/11/08 05:30:49;;;;;;;;;2.00;1.00;;;;;10.69;77.96;99245.22;5138796;27;8826;-57
2022/11/08 05:33:17;;;;;;;;;1.00;1.00;;;;;10.61;77.54;99239.75;5139552;27;8863;-59
2022/11/08 05:35:45;;;;;;;;;1.00;1.00;;;;;10.57;77.55;99237.50;5139033;27;8805;-58
2022/11/08 05:38:12;;;;;;;;;0.00;0.00;;;;;10.53;77.79;99230.75;5139385;27;8830;-59
2022/11/08 05:40:40;;;;;;;;;0.50;0.50;;;;;10.48;78.04;99227.69;5139072;27;9496;-58
2022/11/08 05:43:08;;;;;;;;;1.00;1.00;;;;;10.43;78.02;99214.81;5138826;27;8805;-58
2022/11/08 05:45:35;;;;;;;;;3.50;3.50;;;;;10.42;78.15;99218.47;5138682;27;8841;-58
2022/11/08 05:48:03;;;;;;;;;1.00;1.00;;;;;10.41;77.72;99213.25;5138684;27;8829;-58
2022/11/08 05:50:31;;;;;;;;;1.25;1.25;;;;;10.44;77.85;99207.66;5138928;27;8894;-58
2022/11/08 05:52:59;;;;;;;;;1.00;1.00;;;;;10.44;77.97;99208.50;5138321;27;8909;-59
2022/11/08 05:55:26;;;;;;;;;1.00;1.00;;;;;10.42;77.56;99207.81;5138063;27;8894;-58
2022/11/08 05:57:54;;;;;;;;;1.50;1.50;;;;;10.42;78.04;99201.63;5138190;27;8818;-59
2022/11/08 06:00:22;;;;;;;;;1.00;1.00;;;;;10.39;78.06;99200.09;5138404;27;8818;-59
2022/11/08 06:02:50;;;;;;;;;3.50;2.50;;;;;10.36;77.67;99191.53;5138139;27;8829;-58
2022/11/08 06:05:18;;;;;;;;;1.00;1.00;;;;;10.33;77.76;99189.97;5137919;27;8813;-58
2022/11/08 06:07:45;;;;;;;;;3.00;1.00;;;;;10.29;77.59;99182.41;5138146;27;8911;-58
2022/11/08 06:10:13;;;;;;;;;1.00;0.50;;;;;10.32;78.00;99174.19;5138114;27;8817;-58
2022/11/08 06:12:43;;;;;;;;;1.00;1.00;;;;;10.35;77.37;99179.22;5137346;27;9477;-59
2022/11/08 06:15:10;;;;;;;;;1.50;1.50;;;;;10.37;77.71;99172.78;5137792;27;8847;-58
2022/11/08 06:17:38;;;;;;;;;3.00;3.00;;;;;10.40;77.57;99167.16;5136560;27;8821;-58
2022/11/08 06:20:06;;;;;;;;;1.00;1.00;;;;;10.46;77.83;99168.44;5136191;27;8838;-59
2022/11/08 06:22:34;;;;;;;;;1.00;1.00;;;;;10.56;77.40;99156.78;5135243;27;8841;-58
2022/11/08 06:25:03;;;;;;;;;1.50;1.00;;;;;10.73;77.08;99148.09;5135210;27;8821;-58
2022/11/08 06:27:31;;;;;;;;;0.25;0.25;;;;;10.87;76.88;99147.66;5135783;27;8841;-59
2022/11/08 06:29:59;;;;;;;;;0.50;0.00;;;;;10.99;76.46;99143.84;5136144;27;8921;-59
2022/11/08 06:32:26;;;;;;;;;1.00;1.00;;;;;11.15;76.33;99153.91;5135933;27;8854;-58
2022/11/08 06:34:54;;;;;;;;;1.00;1.00;;;;;11.28;75.49;99144.59;5136745;27;8822;-59
2022/11/08 06:37:23;;;;;;;;;2.00;1.00;;;;;11.38;75.85;99139.22;5136096;27;8805;-59
2022/11/08 06:39:50;;;;;;;;;0.25;0.25;;;;;11.44;74.89;99130.66;5136419;27;8872;-56
2022/11/08 06:42:18;;;;;;;;;0.00;0.00;;;;;11.55;75.27;99123.28;5135569;27;8839;-58
2022/11/08 06:44:46;;;;;;;;;0.75;0.75;;;;;11.65;74.71;99118.75;5135731;27;8837;-58
2022/11/08 06:47:14;;;;;;;;;1.00;1.00;;;;;11.71;74.17;99114.66;5134772;27;8820;-58
2022/11/08 06:49:41;;;;;;;;;1.50;1.50;;;;;11.76;74.03;99109.72;5134487;27;9220;-59
2022/11/08 06:52:09;;;;;;;;;1.00;0.00;;;;;11.81;73.90;99094.09;5134213;27;8813;-58
2022/11/08 06:54:37;;;;;;;;;0.00;0.00;;;;;11.84;74.33;99094.63;5133310;27;8862;-59
2022/11/08 06:57:04;;;;;;;;;0.50;0.50;;;;;11.90;73.92;99094.03;5133471;27;8821;-58
2022/11/08 06:59:32;;;;;;;;;1.00;1.00;;;;;11.96;73.54;99093.44;5133301;27;8830;-59
2022/11/08 07:02:01;;;;;;;;;0.00;0.00;;;;;12.04;73.46;99090.84;5133371;27;8850;-59
2022/11/08 07:04:29;;;;;;;;;1.00;1.00;;;;;12.13;73.62;99095.25;5134335;27;8864;-59
2022/11/08 07:06:57;;;;;;;;;0.00;0.00;;;;;12.24;72.80;99082.53;5134724;27;8853;-59
2022/11/08 07:09:24;;;;;;;;;1.00;1.00;;;;;12.38;72.31;99081.16;5134745;27;9501;-59
2022/11/08 07:11:52;;;;;;;;;0.00;0.00;;;;;12.49;72.08;99083.56;5134829;27;8817;-58
2022/11/08 07:14:21;;;;;;;;;1.00;0.50;;;;;12.60;71.73;99091.34;5134688;27;8829;-58
2022/11/08 07:16:49;;;;;;;;;0.75;0.75;;;;;12.70;71.11;99094.75;5134421;27;8834;-58
2022/11/08 07:19:17;;;;;;;;;0.50;0.50;;;;;12.75;70.99;99081.78;5135289;27;8826;-58
2022/11/08 07:21:44;;;;;;;;;0.75;0.75;;;;;12.79;70.80;99075.97;5134928;27;8814;-59
2022/11/08 07:24:12;;;;;;;;;0.25;0.25;;;;;12.84;71.10;99083.50;5135179;27;9493;-59
2022/11/08 07:26:41;;;;;;;;;1.00;1.00;;;;;12.88;71.15;99087.53;5134165;27;8834;-59
2022/11/08 07:29:09;;;;;;;;;0.75;0.75;;;;;12.93;70.58;99088.72;5133374;27;9520;-59
2022/11/08 07:31:42;;;;;;;;;0.00;0.00;;;;;12.99;70.47;99084.63;5131200;27;8822;-59
2022/11/08 07:34:10;;;;;;;;;0.75;0.75;;;;;13.05;70.50;99087.50;5132407;27;8825;-59
2022/11/08 07:36:38;;;;;;;;;0.00;0.00;;;;;13.12;69.75;99083.19;5131864;27;8838;-59
2022/11/08 07:39:05;;;;;;;;;0.50;0.00;;;;;13.20;69.39;99090.44;5130967;27;8857;-59
2022/11/08 07:41:33;;;;;;;;;0.25;0.25;;;;;13.24;69.49;99084.59;5129933;27;8841;-59
2022/11/08 07:44:01;;;;;;;;;0.50;0.50;;;;;13.31;69.28;99092.81;5131101;27;8846;-59
2022/11/08 07:46:29;;;;;;;;;1.00;0.50;;;;;13.40;68.90;99090.03;5131430;27;8853;-59
2022/11/08 07:48:57;;;;;;;;;0.00;0.00;;;;;13.48;68.82;99091.88;5130930;27;8834;-58
2022/11/08 07:51:27;;;;;;;;;1.00;0.00;;;;;13.53;68.55;99084.22;5131034;27;8898;-59
2022/11/08 07:53:55;;;;;;;;;0.00;0.00;;;;;13.61;68.01;99095.81;5131720;27;8914;-59
2022/11/08 07:56:29;;;;;;;;;0.00;0.00;;;;;13.69;68.10;99089.63;5130882;27;8818;-59
2022/11/08 07:58:56;;;;;;;;;1.00;1.00;;;;;13.80;67.48;99092.84;5130782;27;9210;-57
2022/11/08 08:01:24;;;;;;;;;0.25;0.00;;;;;13.92;67.20;99083.50;5131636;27;8842;-59
2022/11/08 08:03:53;;;;;;;;;1.00;0.75;;;;;14.07;66.44;99089.06;5132149;27;8852;-59
2022/11/08 08:06:20;;;;;;;;;0.00;0.00;;;;;14.23;66.00;99073.88;5132381;27;8817;-59
2022/11/08 08:08:48;;;;;;;;;0.00;0.00;;;;;14.35;65.53;99077.06;5132361;27;8845;-58
2022/11/08 08:11:16;;;;;;;;;0.25;0.25;;;;;14.45;65.09;99077.72;5133185;27;8930;-59
2022/11/08 08:13:45;;;;;;;;;0.50;0.50;;;;;14.54;64.39;99072.22;5133053;27;8825;-59
2022/11/08 08:16:13;;;;;;;;;0.00;0.00;;;;;14.65;64.28;99082.56;5131396;27;9520;-59
2022/11/08 08:18:40;;;;;;;;;1.00;1.00;;;;;14.78;63.48;99072.19;5131789;27;8817;-59
2022/11/08 08:21:08;;;;;;;;;0.00;0.00;;;;;14.91;62.99;99079.69;5132473;27;8833;-58
2022/11/08 08:23:36;;;;;;;;;0.00;0.00;;;;;15.01;63.18;99080.38;5132685;27;8825;-59
2022/11/08 08:26:03;;;;;;;;;0.00;0.00;;;;;15.09;62.19;99073.13;5132794;27;8846;-59
2022/11/08 08:28:31;;;;;;;;;0.00;0.00;;;;;15.18;62.01;99077.44;5132407;27;8834;-58
2022/11/08 08:30:59;;;;;;;;;0.00;0.00;;;;;15.26;61.14;99069.38;5133054;27;8837;-59
2022/11/08 08:33:27;;;;;;;;;1.00;1.00;;;;;15.34;61.03;99064.03;5132844;27;8841;-59
2022/11/08 08:35:56;;;;;;;;;0.00;0.00;;;;;15.41;60.51;99081.09;5132624;27;8902;-59
2022/11/08 08:38:24;;;;;;;;;0.40;0.40;;;;;15.51;60.35;99094.31;5132810;27;8869;-58
2022/11/08 08:40:54;;;;;;;;;0.00;0.00;;;;;15.57;59.62;99078.38;5131566;27;8844;-59
2022/11/08 08:43:22;;;;;;;;;0.00;0.00;;;;;15.65;60.32;99090.91;5130472;27;8837;-59
2022/11/08 08:45:49;;;;;;;;;0.20;0.20;;;;;15.71;59.53;99082.16;5130137;27;8962;-59
2022/11/08 08:48:17;;;;;;;;;0.00;0.00;;;;;15.76;59.66;99088.66;5129012;27;8910;-58
2022/11/08 08:50:45;;;;;;;;;1.00;1.00;;;;;15.82;59.55;99096.03;5132525;27;8913;-59
2022/11/08 08:53:14;;;;;;;;;0.00;0.00;;;;;15.88;59.57;99092.66;5133626;27;8817;-59
2022/11/08 08:55:43;;;;;;;;;0.00;0.00;;;;;15.95;59.39;99082.03;5134879;27;9558;-59
2022/11/08 08:58:11;;;;;;;;;1.00;0.40;;;;;16.01;59.05;99078.63;5135106;27;8849;-59
2022/11/08 09:00:38;;;;;;;;;0.00;0.00;;;;;16.07;59.22;99076.06;5134106;27;9601;-59
2022/11/08 09:03:28;;;;;;;;;0.20;0.20;;;;;16.15;59.05;99072.50;5134057;27;8833;-58
2022/11/08 09:05:56;;;;;;;;;0.00;0.00;;;;;16.22;58.36;99089.59;5136704;27;9489;-59
2022/11/08 09:08:24;;;;;;;;;0.60;0.60;;;;;16.28;58.06;99082.47;5136481;27;9523;-59
2022/11/08 09:10:52;;;;;;;;;0.00;0.00;;;;;16.36;57.62;99092.31;5133199;27;9223;-59
2022/11/08 09:13:20;;;;;;;;;1.00;1.00;;;;;16.39;57.80;99090.16;5134841;27;8817;-59
2022/11/08 09:15:48;;;;;;;;;0.00;0.00;;;;;16.41;57.00;99081.91;5134920;27;9223;-59
2022/11/08 09:18:16;;;;;;;;;0.40;0.40;;;;;16.41;57.38;99089.97;5135379;27;9638;-59
2022/11/08 09:20:44;;;;;;;;;0.00;0.00;;;;;16.41;57.09;99073.84;5135325;27;8825;-59
2022/11/08 09:23:12;;;;;;;;;1.00;0.20;;;;;16.40;56.61;99070.31;5134510;27;8826;-59
2022/11/08 09:25:40;;;;;;;;;0.20;0.20;;;;;16.38;56.18;99068.00;5135354;27;8829;-59
2022/11/08 09:28:10;;;;;;;;;0.40;0.40;;;;;16.35;56.25;99056.53;5135170;27;8829;-59
2022/11/08 09:30:38;;;;;;;;;1.80;1.00;;;;;16.39;56.87;99071.31;5134617;27;8902;-59
2022/11/08 09:33:06;;;;;;;;;1.00;1.00;;;;;16.42;56.70;99062.06;5133762;27;8909;-59
2022/11/08 09:35:34;;;;;;;;;1.00;1.00;;;;;16.44;56.26;99074.31;5133821;27;8829;-58
2022/11/08 09:38:01;;;;;;;;;1.00;1.00;;;;;16.48;56.24;99059.50;5134063;27;8837;-59
2022/11/08 09:40:30;;;;;;;;;1.00;1.00;;;;;16.54;55.87;99060.63;5133520;27;8849;-58
2022/11/08 09:42:58;;;;;;;;;1.00;1.00;;;;;16.62;55.79;99058.69;5135537;27;9562;-59
2022/11/08 09:45:26;;;;;;;;;1.00;1.00;;;;;16.74;55.50;99048.34;5136115;27;8829;-59
2022/11/08 09:47:54;;;;;;;;;0.00;0.00;;;;;16.82;54.96;99057.19;5135772;27;8960;-59
2022/11/08 09:50:22;;;;;;;;;1.00;1.00;;;;;16.87;54.67;99060.13;5135797;27;8830;-59
2022/11/08 09:52:50;;;;;;;;;1.00;1.00;;;;;16.95;54.90;99059.22;5135189;27;8868;-57
2022/11/08 09:55:18;;;;;;;;;0.00;0.00;;;;;17.03;54.77;99065.38;5135019;27;8919;-60
2022/11/08 09:57:46;;;;;;;;;0.60;0.60;;;;;17.20;53.95;99064.16;5134574;27;8834;-59
2022/11/08 10:00:14;;;;;;;;;1.00;1.00;;;;;17.35;53.50;99065.00;5134197;27;8991;-59
2022/11/08 10:02:42;;;;;;;;;0.40;0.40;;;;;17.46;53.47;99078.00;5134702;27;8853;-59
2022/11/08 10:05:14;;;;;;;;;2.60;1.00;;;;;17.53;53.49;99081.63;5133811;27;8837;-59
2022/11/08 10:07:42;;;;;;;;;1.80;1.00;;;;;17.60;53.62;99079.88;5133076;27;8830;-59
2022/11/08 10:10:10;;;;;;;;;0.00;0.00;;;;;17.73;53.27;99076.50;5133085;27;8863;-59
2022/11/08 10:12:39;;;;;;;;;0.80;0.80;;;;;17.84;52.82;99081.41;5133078;27;8837;-58
2022/11/08 10:15:07;;;;;;;;;1.00;1.00;;;;;17.91;53.00;99068.88;5133656;27;9484;-59
2022/11/08 10:17:36;;;;;;;;;0.80;0.80;;;;;17.96;52.99;99080.72;5133088;27;8829;-55
2022/11/08 10:20:04;;;;;;;;;0.00;0.00;;;;;17.98;52.50;99084.06;5133800;27;8844;-59
2022/11/08 10:22:33;;;;;;;;;1.00;1.00;;;;;17.95;52.23;99059.34;5134826;27;8833;-59
2022/11/08 10:25:01;;;;;;;;;0.00;0.00;;;;;17.82;52.59;99068.13;5134337;27;8983;-59
2022/11/08 10:27:30;;;;;;;;;1.00;1.00;;;;;17.68;52.45;99058.22;5133354;27;8983;-59
2022/11/08 10:29:57;;;;;;;;;0.00;0.00;;;;;17.56;52.59;99058.88;5133782;27;8894;-58
2022/11/08 10:32:25;;;;;;;;;0.00;0.00;;;;;17.44;53.00;99063.91;5133251;27;8868;-59
2022/11/08 10:34:53;;;;;;;;;1.00;1.00;;;;;17.34;53.28;99040.97;5132282;27;8817;-59
2022/11/08 10:37:21;;;;;;;;;0.20;0.20;;;;;17.24;53.18;99059.25;5132974;27;8818;-59
2022/11/08 10:39:49;;;;;;;;;3.00;3.00;;;;;17.16;53.36;99054.78;5133037;27;9000;-59
2022/11/08 10:42:19;;;;;;;;;3.00;1.00;;;;;17.05;52.93;99049.03;5132608;27;8925;-57
2022/11/08 10:44:46;;;;;;;;;1.00;1.00;;;;;16.97;53.00;99058.03;5133423;27;8971;-59
2022/11/08 10:47:14;;;;;;;;;1.00;1.00;;;;;16.91;52.90;99042.63;5134038;27;8818;-59
2022/11/08 10:49:42;;;;;;;;;0.20;0.20;;;;;16.86;53.43;99053.09;5133876;27;8853;-59
2022/11/08 10:52:10;;;;;;;;;3.00;3.00;;;;;16.82;53.69;99046.41;5133991;27;8849;-59
2022/11/08 10:54:38;;;;;;;;;1.00;1.00;;;;;16.81;53.23;99038.53;5133644;27;8810;-59
2022/11/08 10:57:06;;;;;;;;;0.40;0.40;;;;;16.80;53.86;99050.31;5134114;27;8829;-59
2022/11/08 10:59:34;;;;;;;;;1.00;1.00;;;;;16.77;53.60;99038.06;5132380;27;8864;-57
2022/11/08 11:02:02;;;;;;;;;1.40;1.00;;;;;16.74;53.39;99042.97;5131939;27;8993;-57
2022/11/08 11:04:30;;;;;;;;;0.80;0.80;;;;;16.70;53.78;99036.28;5131727;27;8853;-59
2022/11/08 11:06:58;;;;;;;;;1.00;1.00;;;;;16.67;53.37;99028.56;5131409;27;8967;-59
2022/11/08 11:09:26;;;;;;;;;1.80;1.00;;;;;16.65;53.91;99030.63;5131324;27;8849;-59
2022/11/08 11:11:54;;;;;;;;;0.20;0.20;;;;;16.66;54.11;99014.31;5129599;27;8822;-59
2022/11/08 11:14:22;;;;;;;;;3.00;3.00;;;;;16.66;54.16;99025.06;5130048;27;8837;-58
2022/11/08 11:16:50;;;;;;;;;3.00;1.00;;;;;16.64;53.51;99015.50;5131246;27;8830;-59
2022/11/08 11:19:17;;;;;;;;;1.80;1.80;;;;;16.62;53.74;99023.75;5131989;27;8825;-60
2022/11/08 11:21:45;;;;;;;;;1.00;1.00;;;;;16.59;54.13;99021.44;5132113;27;8842;-59
2022/11/08 11:24:13;;;;;;;;;1.00;1.00;;;;;16.54;53.87;99005.00;5131301;27;8833;-59
2022/11/08 11:26:45;;;;;;;;;1.00;1.00;;;;;16.51;54.13;99016.16;5132985;27;8837;-59
2022/11/08 11:29:14;;;;;;;;;1.80;1.80;;;;;16.48;53.64;99012.97;5132925;27;8875;-58
2022/11/08 11:31:42;;;;;;;;;2.20;1.00;;;;;16.45;53.69;99018.69;5132370;27;8830;-59
2022/11/08 11:34:10;;;;;;;;;3.00;1.40;;;;;16.44;53.78;99027.78;5132329;27;9151;-59
2022/11/08 11:36:38;;;;;;;;;1.00;1.00;;;;;16.42;53.99;99027.97;5132946;27;8841;-59
2022/11/08 11:39:06;;;;;;;;;3.00;1.00;;;;;16.42;54.04;99054.00;5132679;27;8915;-59
2022/11/08 11:41:34;;;;;;;;;1.80;1.00;;;;;16.40;53.99;99019.25;5132642;27;8833;-59
2022/11/08 11:44:02;;;;;;;;;2.60;2.60;;;;;16.41;54.36;99010.16;5130997;27;8968;-59
2022/11/08 11:46:30;;;;;;;;;3.00;1.00;;;;;16.43;54.46;98991.19;5131769;27;8829;-59
2022/11/08 11:49:01;;;;;;;;;1.00;1.00;;;;;16.47;53.42;98998.69;5132015;27;8830;-59
2022/11/08 11:51:29;;;;;;;;;1.00;1.00;;;;;16.50;54.07;99001.00;5132768;27;8817;-59
2022/11/08 11:53:58;;;;;;;;;0.20;0.00;;;;;16.51;53.74;99001.84;5130325;27;8829;-59
2022/11/08 11:56:27;;;;;;;;;3.00;3.00;;;;;16.51;54.35;98999.16;5131937;27;8968;-59
2022/11/08 11:58:55;;;;;;;;;1.00;1.00;;;;;16.49;54.10;99018.16;5132632;27;8829;-59
2022/11/08 12:01:23;;;;;;;;;1.00;1.00;;;;;16.49;54.21;98996.66;5131484;27;8915;-59
2022/11/08 12:03:51;;;;;;;;;3.00;3.00;;;;;16.50;54.24;98982.19;5129598;27;8863;-59
2022/11/08 12:06:20;;;;;;;;;0.00;0.00;;;;;16.52;53.94;98990.94;5130883;27;8921;-59